Airport View

Enter AWOS ICAO identifier for current METAR.

ex. KFNL

KLWT 212354Z AUTO 21005KT 10SM SCT060 BKN075 14/05 A2997 RMK AO2 SLP138 T01390050 10144 20117 56009

22 Sep 2019 00:04

Frequency: 118.375

Phone: 406-538-2653

Other Area AWOS: KMVH - K79S - KGFA - KGTF

TAF KLWT 212326Z 2200/2224 28009KT P6SM VCSH SCT025 BKN070 TEMPO 2200/2202 -SHRA BKN025 FM220300 VRB05KT P6SM FEW040 SCT090 FM221900 27009KT P6SM SCT110